sensor_id;sensor_type;location;lat;lon;timestamp;pressure;altitude;pressure_sealevel;temperature;humidity
73267;BME280;61495;53.400;7.608;2022-10-16T00:00:41;100803.34;;;11.87;86.51
73267;BME280;61495;53.400;7.608;2022-10-16T00:03:07;100821.44;;;11.98;86.54
73267;BME280;61495;53.400;7.608;2022-10-16T00:05:38;100820.63;;;11.97;86.74
73267;BME280;61495;53.400;7.608;2022-10-16T00:08:04;100825.38;;;11.95;86.58
73267;BME280;61495;53.400;7.608;2022-10-16T00:10:29;100819.44;;;11.87;86.40
73267;BME280;61495;53.400;7.608;2022-10-16T00:12:54;100838.38;;;11.98;86.37
73267;BME280;61495;53.400;7.608;2022-10-16T00:15:20;100820.66;;;11.91;86.54
73267;BME280;61495;53.400;7.608;2022-10-16T00:17:45;100831.38;;;11.91;86.47
73267;BME280;61495;53.400;7.608;2022-10-16T00:20:11;100818.22;;;11.83;86.63
73267;BME280;61495;53.400;7.608;2022-10-16T00:22:36;100834.28;;;11.96;86.20
73267;BME280;61495;53.400;7.608;2022-10-16T00:25:02;100837.13;;;12.01;86.34
73267;BME280;61495;53.400;7.608;2022-10-16T00:27:27;100830.31;;;11.98;86.50
73267;BME280;61495;53.400;7.608;2022-10-16T00:29:53;100818.19;;;11.89;86.21
73267;BME280;61495;53.400;7.608;2022-10-16T00:32:19;100819.22;;;11.88;86.26
73267;BME280;61495;53.400;7.608;2022-10-16T00:34:45;100846.00;;;12.01;86.03
73267;BME280;61495;53.400;7.608;2022-10-16T00:37:10;100810.41;;;11.81;86.45
73267;BME280;61495;53.400;7.608;2022-10-16T00:39:36;100833.44;;;11.95;86.40
73267;BME280;61495;53.400;7.608;2022-10-16T00:42:02;100844.59;;;11.99;86.17
73267;BME280;61495;53.400;7.608;2022-10-16T00:44:54;100842.09;;;11.97;85.85
73267;BME280;61495;53.400;7.608;2022-10-16T00:50:12;100844.22;;;11.89;85.93
73267;BME280;61495;53.400;7.608;2022-10-16T00:52:41;100840.50;;;11.90;86.03
73267;BME280;61495;53.400;7.608;2022-10-16T00:55:09;100841.34;;;11.90;86.10
73267;BME280;61495;53.400;7.608;2022-10-16T00:57:34;100841.34;;;11.90;86.12
73267;BME280;61495;53.400;7.608;2022-10-16T01:00:05;100822.16;;;11.80;86.05
73267;BME280;61495;53.400;7.608;2022-10-16T01:02:31;100840.94;;;11.87;86.40
73267;BME280;61495;53.400;7.608;2022-10-16T01:04:57;100814.16;;;11.74;86.40
73267;BME280;61495;53.400;7.608;2022-10-16T01:12:46;100822.00;;;11.75;86.72
73267;BME280;61495;53.400;7.608;2022-10-16T01:15:22;100839.91;;;11.88;86.22
73267;BME280;61495;53.400;7.608;2022-10-16T01:18:01;100834.34;;;11.83;86.66
73267;BME280;61495;53.400;7.608;2022-10-16T01:20:36;100852.50;;;11.87;86.27
73267;BME280;61495;53.400;7.608;2022-10-16T01:25:46;100851.28;;;11.83;86.58
73267;BME280;61495;53.400;7.608;2022-10-16T01:28:18;100850.84;;;11.86;86.36
73267;BME280;61495;53.400;7.608;2022-10-16T01:30:47;100853.53;;;11.86;86.72
73267;BME280;61495;53.400;7.608;2022-10-16T01:33:19;100848.81;;;11.82;86.26
73267;BME280;61495;53.400;7.608;2022-10-16T01:35:52;100832.50;;;11.77;86.84
73267;BME280;61495;53.400;7.608;2022-10-16T01:40:56;100854.19;;;11.82;86.69
73267;BME280;61495;53.400;7.608;2022-10-16T01:43:28;100841.00;;;11.74;86.87
73267;BME280;61495;53.400;7.608;2022-10-16T01:45:57;100858.50;;;11.83;86.30
73267;BME280;61495;53.400;7.608;2022-10-16T01:48:23;100840.16;;;11.73;86.56
73267;BME280;61495;53.400;7.608;2022-10-16T01:50:59;100845.94;;;11.77;86.70
73267;BME280;61495;53.400;7.608;2022-10-16T01:53:26;100831.50;;;11.64;86.23
73267;BME280;61495;53.400;7.608;2022-10-16T01:55:54;100855.84;;;11.76;86.19
73267;BME280;61495;53.400;7.608;2022-10-16T01:58:21;100852.53;;;11.81;86.28
73267;BME280;61495;53.400;7.608;2022-10-16T02:00:48;100852.97;;;11.78;86.56
73267;BME280;61495;53.400;7.608;2022-10-16T02:03:15;100841.81;;;11.74;86.22
73267;BME280;61495;53.400;7.608;2022-10-16T02:05:49;100852.72;;;11.79;86.90
73267;BME280;61495;53.400;7.608;2022-10-16T02:08:15;100863.25;;;11.81;86.50
73267;BME280;61495;53.400;7.608;2022-10-16T02:10:41;100827.78;;;11.65;86.23
73267;BME280;61495;53.400;7.608;2022-10-16T02:13:12;100821.19;;;11.61;86.30
73267;BME280;61495;53.400;7.608;2022-10-16T02:15:38;100833.16;;;11.65;86.39
73267;BME280;61495;53.400;7.608;2022-10-16T02:18:05;100835.25;;;11.63;86.53
73267;BME280;61495;53.400;7.608;2022-10-16T02:20:59;100852.97;;;11.78;86.63
73267;BME280;61495;53.400;7.608;2022-10-16T02:23:40;100843.06;;;11.72;86.54
73267;BME280;61495;53.400;7.608;2022-10-16T02:26:12;100839.38;;;11.73;86.78
73267;BME280;61495;53.400;7.608;2022-10-16T02:28:45;100845.50;;;11.80;86.56
73267;BME280;61495;53.400;7.608;2022-10-16T02:31:16;100826.13;;;11.64;86.43
73267;BME280;61495;53.400;7.608;2022-10-16T02:33:45;100825.72;;;11.67;86.51
73267;BME280;61495;53.400;7.608;2022-10-16T02:36:11;100836.03;;;11.70;86.12
73267;BME280;61495;53.400;7.608;2022-10-16T02:38:39;100836.84;;;11.78;86.75
73267;BME280;61495;53.400;7.608;2022-10-16T02:41:05;100829.44;;;11.66;86.54
73267;BME280;61495;53.400;7.608;2022-10-16T02:43:31;100816.03;;;11.66;86.69
73267;BME280;61495;53.400;7.608;2022-10-16T02:45:59;100840.78;;;11.75;86.34
73267;BME280;61495;53.400;7.608;2022-10-16T02:48:24;100833.56;;;11.76;86.64
73267;BME280;61495;53.400;7.608;2022-10-16T02:50:50;100812.28;;;11.67;86.06
73267;BME280;61495;53.400;7.608;2022-10-16T02:53:16;100829.22;;;11.75;86.47
73267;BME280;61495;53.400;7.608;2022-10-16T02:55:42;100836.00;;;11.84;85.93
73267;BME280;61495;53.400;7.608;2022-10-16T02:58:08;100826.91;;;11.85;85.87
73267;BME280;61495;53.400;7.608;2022-10-16T03:00:34;100838.84;;;11.89;86.01
73267;BME280;61495;53.400;7.608;2022-10-16T03:03:00;100840.94;;;11.87;86.37
73267;BME280;61495;53.400;7.608;2022-10-16T03:05:26;100858.25;;;11.91;86.32
73267;BME280;61495;53.400;7.608;2022-10-16T03:07:52;100856.19;;;11.93;85.99
73267;BME280;61495;53.400;7.608;2022-10-16T03:10:18;100840.09;;;11.86;85.75
73267;BME280;61495;53.400;7.608;2022-10-16T03:12:44;100822.19;;;11.74;85.95
73267;BME280;61495;53.400;7.608;2022-10-16T03:15:10;100839.28;;;11.86;85.92
73267;BME280;61495;53.400;7.608;2022-10-16T03:17:36;100852.00;;;11.97;85.56
73267;BME280;61495;53.400;7.608;2022-10-16T03:20:02;100849.97;;;11.92;85.74
73267;BME280;61495;53.400;7.608;2022-10-16T03:22:29;100860.50;;;11.94;85.70
73267;BME280;61495;53.400;7.608;2022-10-16T03:24:54;100846.31;;;11.87;85.69
73267;BME280;61495;53.400;7.608;2022-10-16T03:27:20;100845.06;;;11.83;85.82
73267;BME280;61495;53.400;7.608;2022-10-16T03:29:46;100850.81;;;11.93;85.50
73267;BME280;61495;53.400;7.608;2022-10-16T03:32:12;100863.19;;;11.94;85.72
73267;BME280;61495;53.400;7.608;2022-10-16T03:34:38;100875.16;;;11.98;85.80
73267;BME280;61495;53.400;7.608;2022-10-16T03:37:04;100885.47;;;12.01;85.55
73267;BME280;61495;53.400;7.608;2022-10-16T03:39:31;100880.50;;;11.98;85.37
73267;BME280;61495;53.400;7.608;2022-10-16T03:41:57;100852.09;;;11.84;85.40
73267;BME280;61495;53.400;7.608;2022-10-16T03:44:23;100864.50;;;11.85;85.80
73267;BME280;61495;53.400;7.608;2022-10-16T03:46:49;100878.84;;;11.97;85.39
73267;BME280;61495;53.400;7.608;2022-10-16T03:49:16;100875.53;;;12.01;85.73
73267;BME280;61495;53.400;7.608;2022-10-16T03:51:42;100865.25;;;11.92;85.04
73267;BME280;61495;53.400;7.608;2022-10-16T03:54:09;100882.38;;;11.97;85.28
73267;BME280;61495;53.400;7.608;2022-10-16T03:56:35;100880.09;;;12.01;85.32
73267;BME280;61495;53.400;7.608;2022-10-16T03:59:01;100878.44;;;12.00;85.23
73267;BME280;61495;53.400;7.608;2022-10-16T04:01:27;100880.09;;;12.01;85.33
73267;BME280;61495;53.400;7.608;2022-10-16T04:03:53;100870.38;;;12.00;85.24
73267;BME280;61495;53.400;7.608;2022-10-16T04:06:19;100875.16;;;11.98;85.46
73267;BME280;61495;53.400;7.608;2022-10-16T04:08:45;100905.66;;;12.10;85.16
73267;BME280;61495;53.400;7.608;2022-10-16T04:11:11;100878.84;;;11.97;85.21
73267;BME280;61495;53.400;7.608;2022-10-16T04:13:37;100902.78;;;12.05;85.33
73267;BME280;61495;53.400;7.608;2022-10-16T04:16:03;100895.13;;;12.08;85.14
73267;BME280;61495;53.400;7.608;2022-10-16T04:18:28;100870.19;;;11.95;85.40
73267;BME280;61495;53.400;7.608;2022-10-16T04:20:54;100873.06;;;12.00;85.08
73267;BME280;61495;53.400;7.608;2022-10-16T04:23:20;100859.91;;;11.92;85.35
73267;BME280;61495;53.400;7.608;2022-10-16T04:25:48;100872.19;;;12.06;84.93
73267;BME280;61495;53.400;7.608;2022-10-16T04:28:14;100883.13;;;12.11;85.14
73267;BME280;61495;53.400;7.608;2022-10-16T04:30:40;100875.91;;;12.11;85.26
73267;BME280;61495;53.400;7.608;2022-10-16T04:33:09;100888.28;;;12.12;85.51
73267;BME280;61495;53.400;7.608;2022-10-16T04:35:35;100880.47;;;12.11;85.36
73267;BME280;61495;53.400;7.608;2022-10-16T04:38:01;100873.47;;;12.03;85.33
73267;BME280;61495;53.400;7.608;2022-10-16T04:40:27;100892.81;;;12.12;85.34
73267;BME280;61495;53.400;7.608;2022-10-16T04:42:52;100880.09;;;12.01;85.52
73267;BME280;61495;53.400;7.608;2022-10-16T04:45:18;100888.31;;;12.06;85.75
73267;BME280;61495;53.400;7.608;2022-10-16T04:47:44;100896.75;;;12.09;85.52
73267;BME280;61495;53.400;7.608;2022-10-16T04:50:10;100876.38;;;12.02;85.55
73267;BME280;61495;53.400;7.608;2022-10-16T04:52:36;100904.41;;;12.06;85.33
73267;BME280;61495;53.400;7.608;2022-10-16T04:55:03;100878.50;;;11.93;85.81
73267;BME280;61495;53.400;7.608;2022-10-16T04:57:29;100906.69;;;12.09;85.67
73267;BME280;61495;53.400;7.608;2022-10-16T04:59:56;100908.16;;;12.05;85.24
73267;BME280;61495;53.400;7.608;2022-10-16T05:02:22;100916.00;;;12.06;85.36
73267;BME280;61495;53.400;7.608;2022-10-16T05:04:48;100920.53;;;12.06;85.37
73267;BME280;61495;53.400;7.608;2022-10-16T05:07:15;100911.72;;;11.99;85.43
73267;BME280;61495;53.400;7.608;2022-10-16T05:09:41;100900.75;;;11.94;85.67
73267;BME280;61495;53.400;7.608;2022-10-16T05:12:07;100907.59;;;11.96;85.30
73267;BME280;61495;53.400;7.608;2022-10-16T05:14:39;100928.00;;;12.04;85.34
73267;BME280;61495;53.400;7.608;2022-10-16T05:17:05;100920.59;;;11.99;85.68
73267;BME280;61495;53.400;7.608;2022-10-16T05:19:32;100921.03;;;11.90;85.57
73267;BME280;61495;53.400;7.608;2022-10-16T05:21:58;100933.19;;;11.99;85.71
73267;BME280;61495;53.400;7.608;2022-10-16T05:24:24;100935.06;;;11.92;86.17
73267;BME280;61495;53.400;7.608;2022-10-16T05:26:51;100945.78;;;11.98;85.82
73267;BME280;61495;53.400;7.608;2022-10-16T05:29:17;100948.25;;;12.00;86.00
73267;BME280;61495;53.400;7.608;2022-10-16T05:31:43;100945.97;;;11.97;86.18
73267;BME280;61495;53.400;7.608;2022-10-16T05:34:09;100939.84;;;11.90;86.01
73267;BME280;61495;53.400;7.608;2022-10-16T05:36:35;100947.03;;;11.96;86.47
73267;BME280;61495;53.400;7.608;2022-10-16T05:39:01;100969.53;;;12.01;86.43
73267;BME280;61495;53.400;7.608;2022-10-16T05:41:26;100966.88;;;11.95;86.02
73267;BME280;61495;53.400;7.608;2022-10-16T05:43:52;100945.03;;;11.85;86.10
73267;BME280;61495;53.400;7.608;2022-10-16T05:46:18;100948.31;;;11.87;86.80
73267;BME280;61495;53.400;7.608;2022-10-16T05:48:44;100977.19;;;11.98;86.61
73267;BME280;61495;53.400;7.608;2022-10-16T05:51:12;100990.34;;;12.06;86.55
73267;BME280;61495;53.400;7.608;2022-10-16T05:53:38;100972.22;;;11.95;86.49
73267;BME280;61495;53.400;7.608;2022-10-16T05:56:06;100981.28;;;12.07;86.35
73267;BME280;61495;53.400;7.608;2022-10-16T05:58:34;100981.09;;;12.02;87.04
73267;BME280;61495;53.400;7.608;2022-10-16T06:01:05;100964.00;;;11.90;86.86
73267;BME280;61495;53.400;7.608;2022-10-16T06:03:32;100990.16;;;12.07;87.45
73267;BME280;61495;53.400;7.608;2022-10-16T06:06:16;100950.75;;;11.95;87.15
73267;BME280;61495;53.400;7.608;2022-10-16T06:08:43;100975.31;;;12.05;87.22
73267;BME280;61495;53.400;7.608;2022-10-16T06:11:13;100977.56;;;12.08;87.49
73267;BME280;61495;53.400;7.608;2022-10-16T06:13:39;100976.75;;;12.01;87.41
73267;BME280;61495;53.400;7.608;2022-10-16T06:16:08;100970.56;;;11.94;86.87
73267;BME280;61495;53.400;7.608;2022-10-16T06:18:34;100984.78;;;12.07;87.13
73267;BME280;61495;53.400;7.608;2022-10-16T06:20:59;100994.09;;;12.11;86.93
73267;BME280;61495;53.400;7.608;2022-10-16T06:23:31;100978.84;;;11.99;87.26
73267;BME280;61495;53.400;7.608;2022-10-16T06:26:04;101005.63;;;12.12;86.94
73267;BME280;61495;53.400;7.608;2022-10-16T06:28:30;100974.50;;;11.98;87.04
73267;BME280;61495;53.400;7.608;2022-10-16T06:30:59;100979.63;;;12.06;87.63
73267;BME280;61495;53.400;7.608;2022-10-16T06:33:26;101007.69;;;12.16;86.91
73267;BME280;61495;53.400;7.608;2022-10-16T06:35:51;100990.13;;;12.14;87.24
73267;BME280;61495;53.400;7.608;2022-10-16T06:38:17;100989.50;;;12.12;87.34
73267;BME280;61495;53.400;7.608;2022-10-16T06:40:42;101010.97;;;12.18;87.40
73267;BME280;61495;53.400;7.608;2022-10-16T06:43:08;101023.78;;;12.23;87.41
73267;BME280;61495;53.400;7.608;2022-10-16T06:45:33;101015.91;;;12.21;87.73
73267;BME280;61495;53.400;7.608;2022-10-16T06:47:59;101021.69;;;12.25;87.74
73267;BME280;61495;53.400;7.608;2022-10-16T06:50:24;101025.00;;;12.27;87.57
73267;BME280;61495;53.400;7.608;2022-10-16T06:52:49;101005.19;;;12.15;87.70
73267;BME280;61495;53.400;7.608;2022-10-16T06:55:15;101015.13;;;12.14;87.59
73267;BME280;61495;53.400;7.608;2022-10-16T06:57:42;101032.03;;;12.28;87.44
73267;BME280;61495;53.400;7.608;2022-10-16T07:00:08;101035.97;;;12.25;87.90
73267;BME280;61495;53.400;7.608;2022-10-16T07:02:34;101042.78;;;12.28;87.67
73267;BME280;61495;53.400;7.608;2022-10-16T07:04:59;101055.53;;;12.39;87.29
73267;BME280;61495;53.400;7.608;2022-10-16T07:07:24;101051.22;;;12.38;87.78
73267;BME280;61495;53.400;7.608;2022-10-16T07:09:51;101050.81;;;12.35;87.47
73267;BME280;61495;53.400;7.608;2022-10-16T07:12:17;101057.78;;;12.42;87.70
73267;BME280;61495;53.400;7.608;2022-10-16T07:14:42;101055.69;;;12.44;87.36
73267;BME280;61495;53.400;7.608;2022-10-16T07:17:08;101030.75;;;12.37;87.99
73267;BME280;61495;53.400;7.608;2022-10-16T07:19:33;101049.03;;;12.53;87.41
73267;BME280;61495;53.400;7.608;2022-10-16T07:21:59;101048.44;;;12.51;87.72
73267;BME280;61495;53.400;7.608;2022-10-16T07:24:24;101068.66;;;12.60;88.03
73267;BME280;61495;53.400;7.608;2022-10-16T07:26:50;101044.50;;;12.54;87.97
73267;BME280;61495;53.400;7.608;2022-10-16T07:29:19;101081.66;;;12.70;87.51
73267;BME280;61495;53.400;7.608;2022-10-16T07:31:45;101080.59;;;12.71;87.73
73267;BME280;61495;53.400;7.608;2022-10-16T07:34:12;101093.84;;;12.72;87.64
73267;BME280;61495;53.400;7.608;2022-10-16T07:36:38;101072.59;;;12.64;87.27
73267;BME280;61495;53.400;7.608;2022-10-16T07:39:04;101102.69;;;12.79;87.60
73267;BME280;61495;53.400;7.608;2022-10-16T07:41:32;101094.81;;;12.85;87.35
73267;BME280;61495;53.400;7.608;2022-10-16T07:44:01;101084.69;;;12.80;87.58
73267;BME280;61495;53.400;7.608;2022-10-16T07:46:27;101106.16;;;12.87;87.30
73267;BME280;61495;53.400;7.608;2022-10-16T07:48:53;101102.84;;;12.91;87.09
73267;BME280;61495;53.400;7.608;2022-10-16T07:51:23;101090.47;;;12.83;86.82
73267;BME280;61495;53.400;7.608;2022-10-16T07:53:49;101101.84;;;12.86;86.66
73267;BME280;61495;53.400;7.608;2022-10-16T07:56:16;101089.25;;;12.79;86.88
73267;BME280;61495;53.400;7.608;2022-10-16T07:58:42;101126.75;;;13.06;87.03
73267;BME280;61495;53.400;7.608;2022-10-16T08:01:09;101122.59;;;13.10;87.21
73267;BME280;61495;53.400;7.608;2022-10-16T08:03:35;101128.19;;;13.15;86.68
73267;BME280;61495;53.400;7.608;2022-10-16T08:06:01;101125.50;;;13.15;86.84
73267;BME280;61495;53.400;7.608;2022-10-16T08:08:27;101131.84;;;13.27;86.14
73267;BME280;61495;53.400;7.608;2022-10-16T08:10:53;101141.28;;;13.36;85.99
73267;BME280;61495;53.400;7.608;2022-10-16T08:13:18;101136.94;;;13.35;86.35
73267;BME280;61495;53.400;7.608;2022-10-16T08:15:45;101146.81;;;13.48;86.55
73267;BME280;61495;53.400;7.608;2022-10-16T08:18:12;101148.81;;;13.52;85.47
73267;BME280;61495;53.400;7.608;2022-10-16T08:20:38;101128.16;;;13.46;85.76
73267;BME280;61495;53.400;7.608;2022-10-16T08:23:04;101149.19;;;13.62;85.43
73267;BME280;61495;53.400;7.608;2022-10-16T08:25:30;101135.53;;;13.57;84.72
73267;BME280;61495;53.400;7.608;2022-10-16T08:27:55;101147.50;;;13.61;85.04
73267;BME280;61495;53.400;7.608;2022-10-16T08:30:22;101127.84;;;13.61;85.39
73267;BME280;61495;53.400;7.608;2022-10-16T08:32:48;101141.69;;;13.64;84.81
73267;BME280;61495;53.400;7.608;2022-10-16T08:35:14;101158.94;;;13.81;84.71
73267;BME280;61495;53.400;7.608;2022-10-16T08:37:40;101159.81;;;13.75;84.71
73267;BME280;61495;53.400;7.608;2022-10-16T08:40:07;101173.19;;;13.88;85.06
73267;BME280;61495;53.400;7.608;2022-10-16T08:43:07;101179.72;;;13.99;84.93
73267;BME280;61495;53.400;7.608;2022-10-16T08:46:06;101190.00;;;14.09;83.92
73267;BME280;61495;53.400;7.608;2022-10-16T08:50:54;101181.09;;;14.08;83.38
73267;BME280;61495;53.400;7.608;2022-10-16T08:53:28;101198.09;;;14.33;83.67
73267;BME280;61495;53.400;7.608;2022-10-16T08:55:55;101215.19;;;14.45;83.00
73267;BME280;61495;53.400;7.608;2022-10-16T08:58:25;101217.97;;;14.57;83.41
73267;BME280;61495;53.400;7.608;2022-10-16T09:00:58;101213.31;;;14.64;83.16
73267;BME280;61495;53.400;7.608;2022-10-16T09:03:39;101229.06;;;14.85;82.54
73267;BME280;61495;53.400;7.608;2022-10-16T09:11:17;101226.84;;;15.12;81.48
73267;BME280;61495;53.400;7.608;2022-10-16T09:16:54;101228.06;;;15.16;80.60
73267;BME280;61495;53.400;7.608;2022-10-16T09:19:33;101239.03;;;15.33;80.79
73267;BME280;61495;53.400;7.608;2022-10-16T09:22:26;101235.69;;;15.37;79.54
73267;BME280;61495;53.400;7.608;2022-10-16T09:24:54;101205.53;;;15.40;79.09
73267;BME280;61495;53.400;7.608;2022-10-16T09:27:20;101231.22;;;15.61;80.42
73267;BME280;61495;53.400;7.608;2022-10-16T09:29:45;101217.94;;;15.60;78.79
73267;BME280;61495;53.400;7.608;2022-10-16T09:32:17;101263.69;;;15.84;78.68
73267;BME280;61495;53.400;7.608;2022-10-16T09:35:01;101255.97;;;15.88;77.81
73267;BME280;61495;53.400;7.608;2022-10-16T09:37:27;101238.56;;;15.95;78.87
73267;BME280;61495;53.400;7.608;2022-10-16T09:39:56;101262.81;;;16.13;78.02
73267;BME280;61495;53.400;7.608;2022-10-16T09:42:27;101262.63;;;16.27;76.95
73267;BME280;61495;53.400;7.608;2022-10-16T09:44:56;101267.66;;;16.35;77.19
73267;BME280;61495;53.400;7.608;2022-10-16T09:47:24;101266.47;;;16.42;75.38
73267;BME280;61495;53.400;7.608;2022-10-16T09:49:58;101293.09;;;16.57;76.82
73267;BME280;61495;53.400;7.608;2022-10-16T09:52:28;101299.81;;;16.66;77.30
73267;BME280;61495;53.400;7.608;2022-10-16T09:55:14;101284.88;;;16.63;76.17
73267;BME280;61495;53.400;7.608;2022-10-16T09:57:53;101301.81;;;16.59;74.67
73267;BME280;61495;53.400;7.608;2022-10-16T10:00:20;101300.75;;;16.60;75.77
73267;BME280;61495;53.400;7.608;2022-10-16T10:02:46;101278.84;;;16.50;76.05
73267;BME280;61495;53.400;7.608;2022-10-16T10:05:26;101301.34;;;16.62;75.72
73267;BME280;61495;53.400;7.608;2022-10-16T10:10:28;101300.03;;;16.53;75.43
73267;BME280;61495;53.400;7.608;2022-10-16T10:12:55;101304.25;;;16.49;74.95
73267;BME280;61495;53.400;7.608;2022-10-16T10:15:22;101305.00;;;16.56;75.61
73267;BME280;61495;53.400;7.608;2022-10-16T10:17:52;101300.63;;;16.55;75.84
73267;BME280;61495;53.400;7.608;2022-10-16T10:20:28;101311.00;;;16.70;75.46
73267;BME280;61495;53.400;7.608;2022-10-16T10:22:55;101318.75;;;16.66;74.69
73267;BME280;61495;53.400;7.608;2022-10-16T10:31:36;101308.41;;;16.63;74.57
73267;BME280;61495;53.400;7.608;2022-10-16T10:36:57;101330.53;;;16.83;74.61
73267;BME280;61495;53.400;7.608;2022-10-16T10:39:25;101338.88;;;16.82;74.60
73267;BME280;61495;53.400;7.608;2022-10-16T11:00:57;101357.00;;;16.81;75.92
73267;BME280;61495;53.400;7.608;2022-10-16T11:06:26;101360.16;;;16.90;73.39
73267;BME280;61495;53.400;7.608;2022-10-16T11:09:16;101368.06;;;16.91;73.48
73267;BME280;61495;53.400;7.608;2022-10-16T11:11:47;101378.06;;;17.02;74.12
73267;BME280;61495;53.400;7.608;2022-10-16T11:19:25;101359.72;;;17.04;73.14
73267;BME280;61495;53.400;7.608;2022-10-16T11:27:54;101402.09;;;17.34;72.39
73267;BME280;61495;53.400;7.608;2022-10-16T11:30:23;101390.16;;;17.35;70.12
73267;BME280;61495;53.400;7.608;2022-10-16T11:33:21;101406.56;;;17.28;70.58
73267;BME280;61495;53.400;7.608;2022-10-16T11:35:48;101398.41;;;17.16;70.71
73267;BME280;61495;53.400;7.608;2022-10-16T11:38:59;101408.44;;;17.16;69.13
73267;BME280;61495;53.400;7.608;2022-10-16T11:41:35;101412.69;;;17.12;68.72
73267;BME280;61495;53.400;7.608;2022-10-16T11:46:48;101397.50;;;16.99;68.72
73267;BME280;61495;53.400;7.608;2022-10-16T11:49:21;101423.72;;;16.99;68.57
73267;BME280;61495;53.400;7.608;2022-10-16T11:52:36;101390.56;;;16.80;69.83
73267;BME280;61495;53.400;7.608;2022-10-16T11:54:57;101420.91;;;16.94;67.57
73267;BME280;61495;53.400;7.608;2022-10-16T11:57:28;101415.03;;;16.85;67.17
73267;BME280;61495;53.400;7.608;2022-10-16T12:00:05;101434.34;;;16.89;68.41
73267;BME280;61495;53.400;7.608;2022-10-16T12:05:50;101427.50;;;16.86;69.49
73267;BME280;61495;53.400;7.608;2022-10-16T12:08:17;101410.19;;;16.87;70.71
73267;BME280;61495;53.400;7.608;2022-10-16T12:10:45;101413.16;;;16.86;69.90
73267;BME280;61495;53.400;7.608;2022-10-16T12:13:33;101444.25;;;17.06;69.31
73267;BME280;61495;53.400;7.608;2022-10-16T12:16:06;101431.16;;;17.03;67.72
73267;BME280;61495;53.400;7.608;2022-10-16T12:18:32;101415.38;;;17.00;68.26
73267;BME280;61495;53.400;7.608;2022-10-16T12:20:58;101415.38;;;17.00;68.77
73267;BME280;61495;53.400;7.608;2022-10-16T12:23:29;101443.50;;;17.11;67.55
73267;BME280;61495;53.400;7.608;2022-10-16T12:25:56;101438.47;;;17.14;68.55
73267;BME280;61495;53.400;7.608;2022-10-16T12:28:26;101441.53;;;17.18;68.73
73267;BME280;61495;53.400;7.608;2022-10-16T12:31:02;101443.97;;;17.31;69.04
73267;BME280;61495;53.400;7.608;2022-10-16T12:33:36;101456.25;;;17.45;69.52
73267;BME280;61495;53.400;7.608;2022-10-16T12:36:27;101455.69;;;17.55;69.78
73267;BME280;61495;53.400;7.608;2022-10-16T12:38:54;101468.50;;;17.59;66.20
73267;BME280;61495;53.400;7.608;2022-10-16T12:41:31;101467.69;;;17.59;66.47
73267;BME280;61495;53.400;7.608;2022-10-16T12:43:57;101472.53;;;17.57;65.42
73267;BME280;61495;53.400;7.608;2022-10-16T12:46:41;101467.19;;;17.50;65.03
73267;BME280;61495;53.400;7.608;2022-10-16T12:51:39;101475.69;;;17.54;66.02
73267;BME280;61495;53.400;7.608;2022-10-16T12:59:29;101498.22;;;17.54;65.41
73267;BME280;61495;53.400;7.608;2022-10-16T13:10:40;101514.09;;;17.51;68.11
73267;BME280;61495;53.400;7.608;2022-10-16T13:13:29;101508.09;;;17.49;67.83
73267;BME280;61495;53.400;7.608;2022-10-16T13:16:06;101524.44;;;17.54;66.58
73267;BME280;61495;53.400;7.608;2022-10-16T13:24:02;101534.56;;;17.47;66.28
73267;BME280;61495;53.400;7.608;2022-10-16T13:26:46;101534.34;;;17.48;65.51
73267;BME280;61495;53.400;7.608;2022-10-16T13:29:16;101535.66;;;17.46;64.60
73267;BME280;61495;53.400;7.608;2022-10-16T13:31:43;101541.66;;;17.48;64.08
73267;BME280;61495;53.400;7.608;2022-10-16T13:34:20;101531.75;;;17.42;65.95
73267;BME280;61495;53.400;7.608;2022-10-16T13:36:51;101555.41;;;17.46;66.05
73267;BME280;61495;53.400;7.608;2022-10-16T13:39:28;101551.91;;;17.46;64.13
73267;BME280;61495;53.400;7.608;2022-10-16T13:42:02;101546.03;;;17.49;65.04
73267;BME280;61495;53.400;7.608;2022-10-16T13:44:30;101552.97;;;17.45;64.46
73267;BME280;61495;53.400;7.608;2022-10-16T13:47:01;101567.81;;;17.42;65.06
73267;BME280;61495;53.400;7.608;2022-10-16T13:49:29;101560.97;;;17.40;65.31
73267;BME280;61495;53.400;7.608;2022-10-16T13:51:59;101569.69;;;17.42;65.47
73267;BME280;61495;53.400;7.608;2022-10-16T13:54:27;101582.03;;;17.49;65.73
73267;BME280;61495;53.400;7.608;2022-10-16T13:56:54;101569.22;;;17.45;64.62
73267;BME280;61495;53.400;7.608;2022-10-16T13:59:33;101558.84;;;17.42;66.15
73267;BME280;61495;53.400;7.608;2022-10-16T14:02:00;101559.31;;;17.39;66.75
73267;BME280;61495;53.400;7.608;2022-10-16T14:04:32;101576.28;;;17.46;64.94
73267;BME280;61495;53.400;7.608;2022-10-16T14:06:59;101582.28;;;17.48;66.70
73267;BME280;61495;53.400;7.608;2022-10-16T14:09:28;101589.38;;;17.49;66.68
73267;BME280;61495;53.400;7.608;2022-10-16T14:12:00;101586.78;;;17.54;66.80
73267;BME280;61495;53.400;7.608;2022-10-16T14:14:45;101579.59;;;17.48;66.03
73267;BME280;61495;53.400;7.608;2022-10-16T14:17:29;101581.44;;;17.36;64.27
73267;BME280;61495;53.400;7.608;2022-10-16T14:19:59;101593.72;;;17.50;66.03
73267;BME280;61495;53.400;7.608;2022-10-16T14:22:37;101603.50;;;17.51;66.37
73267;BME280;61495;53.400;7.608;2022-10-16T14:25:26;101598.19;;;17.44;67.01
73267;BME280;61495;53.400;7.608;2022-10-16T14:27:59;101609.50;;;17.53;65.55
73267;BME280;61495;53.400;7.608;2022-10-16T14:30:26;101606.22;;;17.51;66.61
73267;BME280;61495;53.400;7.608;2022-10-16T14:33:03;101594.06;;;17.53;68.07
73267;BME280;61495;53.400;7.608;2022-10-16T14:35:37;101607.44;;;17.55;67.72
73267;BME280;61495;53.400;7.608;2022-10-16T14:38:04;101604.22;;;17.58;66.75